Time;durP1;ratioP1;P1;durP2;ratioP2;P2;SDS_P1;SDS_P2;PMS_P1;PMS_P2;Temp;Humidity;BMP_temperature;BMP_pressure;BME280_temperature;BME280_humidity;BME280_pressure;Samples;Min_cycle;Max_cycle;Signal;HPM_P1;HPM_P2
2023/06/04 00:00:41;;;;;;;2.03;1.20;;;;;;;16.25;40.56;100441.16;5052829;28;20123;-76
2023/06/04 00:03:07;;;;;;;3.92;1.40;;;;;;;16.24;40.70;100444.78;5052937;28;20057;-76
2023/06/04 00:05:34;;;;;;;2.80;1.58;;;;;;;16.22;40.71;100436.91;5052647;28;20048;-76
2023/06/04 00:08:01;;;;;;;5.82;1.40;;;;;;;16.21;40.75;100442.31;5052382;28;20118;-76
2023/06/04 00:10:27;;;;;;;5.43;1.63;;;;;;;16.20;40.76;100443.28;5052522;28;20076;-76
2023/06/04 00:12:54;;;;;;;2.75;1.20;;;;;;;16.19;40.52;100439.81;5052456;28;20040;-77
2023/06/04 00:15:21;;;;;;;3.55;1.30;;;;;;;16.18;40.74;100434.59;5051309;28;20041;-76
2023/06/04 00:17:47;;;;;;;2.65;1.42;;;;;;;16.16;40.50;100426.72;5052252;28;20138;-76
2023/06/04 00:20:15;;;;;;;2.50;1.25;;;;;;;16.14;40.56;100436.59;5052325;28;20052;-76
2023/06/04 00:22:42;;;;;;;2.38;1.52;;;;;;;16.11;40.83;100428.88;5052268;28;20045;-76
2023/06/04 00:25:10;;;;;;;2.20;1.27;;;;;;;16.09;41.20;100430.75;5052114;28;20456;-75
2023/06/04 00:27:37;;;;;;;3.67;1.35;;;;;;;16.07;40.97;100432.69;5051905;28;20096;-76
2023/06/04 00:30:04;;;;;;;4.15;1.35;;;;;;;16.04;41.07;100436.41;5052198;28;20068;-76
2023/06/04 00:32:31;;;;;;;4.47;1.50;;;;;;;16.02;41.07;100436.50;5052026;28;20099;-76
2023/06/04 00:34:57;;;;;;;8.27;1.80;;;;;;;16.01;41.32;100431.28;5052083;28;20051;-76
2023/06/04 00:37:25;;;;;;;2.47;1.20;;;;;;;15.97;40.98;100425.38;5051665;28;20871;-76
2023/06/04 00:39:52;;;;;;;3.33;1.30;;;;;;;15.97;41.35;100430.66;5051792;28;20049;-76
2023/06/04 00:42:19;;;;;;;4.53;1.45;;;;;;;15.94;41.50;100425.56;5051821;28;20048;-76
2023/06/04 00:44:45;;;;;;;4.38;1.63;;;;;;;15.92;41.16;100422.13;5051094;28;20460;-76
2023/06/04 00:47:12;;;;;;;1.88;1.10;;;;;;;15.89;41.54;100419.69;5051594;28;20049;-76
2023/06/04 00:49:39;;;;;;;3.58;1.42;;;;;;;15.86;41.24;100419.91;5051832;28;20053;-75
2023/06/04 00:52:07;;;;;;;1.85;1.10;;;;;;;15.82;41.63;100426.38;5051864;28;20059;-76
2023/06/04 00:54:34;;;;;;;2.38;1.33;;;;;;;15.77;41.45;100422.22;5051561;28;20052;-75
2023/06/04 00:57:01;;;;;;;1.67;1.05;;;;;;;15.74;41.15;100422.44;5051652;28;20049;-76
2023/06/04 00:59:32;;;;;;;1.92;1.20;;;;;;;15.68;41.80;100420.19;5051474;28;20076;-76
2023/06/04 01:02:12;;;;;;;3.08;1.40;;;;;;;15.63;42.64;100425.81;5051502;28;20136;-76
2023/06/04 01:04:54;;;;;;;5.55;1.42;;;;;;;15.59;42.69;100424.31;5051602;28;20049;-76
2023/06/04 01:07:22;;;;;;;2.47;1.30;;;;;;;15.60;41.69;100425.19;5051574;28;20110;-76
2023/06/04 01:09:50;;;;;;;3.10;1.38;;;;;;;15.58;41.83;100417.31;5051447;28;20752;-75
2023/06/04 01:12:17;;;;;;;3.45;1.40;;;;;;;15.55;42.14;100414.03;5051203;28;20052;-76
2023/06/04 01:14:43;;;;;;;3.60;1.48;;;;;;;15.52;41.86;100412.44;5051179;28;20055;-75
2023/06/04 01:17:28;;;;;;;3.38;1.20;;;;;;;15.46;42.72;100420.78;5049870;28;20053;-76
2023/06/04 01:20:04;;;;;;;2.17;1.33;;;;;;;15.43;42.41;100421.84;5049958;28;20070;-76
2023/06/04 01:22:59;;;;;;;4.50;1.73;;;;;;;15.38;42.12;100421.31;5051159;28;20045;-76
2023/06/04 01:25:37;;;;;;;3.72;1.50;;;;;;;15.36;42.38;100417.91;5051086;28;20136;-76
2023/06/04 01:28:05;;;;;;;2.70;1.10;;;;;;;15.35;42.34;100413.56;5050938;28;20102;-76
2023/06/04 01:30:42;;;;;;;4.38;1.60;;;;;;;15.30;43.05;100418.31;5049600;28;20060;-76
2023/06/04 01:33:13;;;;;;;3.20;1.75;;;;;;;15.29;42.66;100411.31;5051445;28;20057;-76
2023/06/04 01:35:39;;;;;;;6.82;1.85;;;;;;;15.27;42.57;100414.06;5050873;28;20503;-76
2023/06/04 01:38:07;;;;;;;2.15;1.30;;;;;;;15.25;42.80;100421.25;5049678;28;20048;-76
2023/06/04 01:40:34;;;;;;;2.17;1.40;;;;;;;15.23;42.47;100415.22;5049829;28;20597;-76
2023/06/04 01:43:00;;;;;;;3.03;1.75;;;;;;;15.19;42.46;100417.25;5050983;28;20049;-76
2023/06/04 01:45:27;;;;;;;6.28;1.60;;;;;;;15.16;42.63;100419.22;5050850;28;20053;-76
2023/06/04 01:47:55;;;;;;;2.92;1.48;;;;;;;15.13;42.82;100420.28;5050777;28;20073;-76
2023/06/04 01:50:21;;;;;;;3.80;1.70;;;;;;;15.10;42.96;100417.81;5050791;28;20044;-76
2023/06/04 01:52:49;;;;;;;3.03;1.63;;;;;;;15.07;43.37;100415.38;5049807;28;20044;-76
2023/06/04 01:55:17;;;;;;;4.70;1.55;;;;;;;15.04;43.24;100413.78;5050452;28;20448;-76
2023/06/04 01:57:44;;;;;;;2.88;1.55;;;;;;;15.02;43.40;100418.31;5050469;28;20056;-76
2023/06/04 02:00:12;;;;;;;5.03;1.52;;;;;;;15.02;43.33;100420.16;5050864;28;20115;-76
2023/06/04 02:02:41;;;;;;;3.95;1.45;;;;;;;14.98;43.06;100417.69;5050144;28;20060;-76
2023/06/04 02:05:09;;;;;;;2.38;1.80;;;;;;;14.98;43.26;100415.03;5050397;28;20053;-76
2023/06/04 02:07:44;;;;;;;2.35;1.58;;;;;;;14.94;44.26;100410.88;5049069;28;20060;-76
2023/06/04 02:10:13;;;;;;;4.18;1.95;;;;;;;14.93;43.62;100398.59;5050564;28;20053;-77
2023/06/04 02:12:51;;;;;;;3.55;1.98;;;;;;;14.89;43.31;100407.69;5050366;28;20055;-76
2023/06/04 02:15:18;;;;;;;2.78;1.77;;;;;;;14.86;43.52;100418.47;5050308;28;20540;-76
2023/06/04 02:17:45;;;;;;;5.95;1.90;;;;;;;14.82;43.59;100419.63;5050220;28;20048;-76
2023/06/04 02:20:12;;;;;;;3.53;1.67;;;;;;;14.76;43.62;100415.56;5050554;28;20052;-75
2023/06/04 02:22:38;;;;;;;3.83;1.90;;;;;;;14.72;43.55;100412.25;5048627;28;20045;-76
2023/06/04 02:25:05;;;;;;;4.57;1.48;;;;;;;14.67;43.58;100413.47;5048891;28;20049;-76
2023/06/04 02:27:32;;;;;;;3.33;2.00;;;;;;;14.62;43.67;100413.78;5050119;28;20053;-76
2023/06/04 02:29:58;;;;;;;4.57;1.85;;;;;;;14.56;43.84;100407.06;5050215;28;20056;-76
2023/06/04 02:32:25;;;;;;;3.78;1.75;;;;;;;14.50;43.81;100407.44;5049978;28;20057;-77
2023/06/04 02:34:52;;;;;;;5.97;2.00;;;;;;;14.45;43.86;100412.19;5050256;28;20057;-75
2023/06/04 02:37:18;;;;;;;4.55;1.75;;;;;;;14.39;44.11;100420.53;5050042;28;20049;-76
2023/06/04 02:39:45;;;;;;;3.70;2.08;;;;;;;14.33;44.49;100419.94;5050402;28;20049;-76
2023/06/04 02:42:12;;;;;;;3.50;1.77;;;;;;;14.32;44.29;100425.34;5049997;28;20059;-76
2023/06/04 02:44:38;;;;;;;3.33;1.80;;;;;;;14.30;44.52;100419.28;5050193;28;20053;-76
2023/06/04 02:47:05;;;;;;;5.03;2.05;;;;;;;14.29;44.92;100422.91;5049777;28;20057;-76
2023/06/04 02:49:32;;;;;;;3.53;1.80;;;;;;;14.29;44.80;100428.19;5050240;28;20056;-76
2023/06/04 02:51:59;;;;;;;5.22;1.70;;;;;;;14.29;44.48;100426.41;5048944;28;20091;-76
2023/06/04 02:54:25;;;;;;;2.67;1.77;;;;;;;14.29;44.91;100423.75;5049806;28;20639;-76
2023/06/04 02:56:53;;;;;;;2.58;1.70;;;;;;;14.30;44.64;100421.94;5049790;28;20872;-76
2023/06/04 02:59:20;;;;;;;2.85;1.67;;;;;;;14.28;44.70;100427.31;5050058;28;20056;-76
2023/06/04 03:01:46;;;;;;;3.58;1.65;;;;;;;14.30;44.90;100429.88;5049810;28;20135;-76
2023/06/04 03:04:15;;;;;;;5.63;1.90;;;;;;;14.28;45.06;100424.69;5049556;28;20508;-76
2023/06/04 03:06:46;;;;;;;2.83;1.90;;;;;;;14.29;45.08;100428.19;5048611;28;20049;-76
2023/06/04 03:09:13;;;;;;;5.18;2.03;;;;;;;14.28;45.36;100426.50;5053363;28;20068;-76
2023/06/04 03:11:40;;;;;;;4.53;1.98;;;;;;;14.28;45.23;100424.69;5053812;28;20045;-76
2023/06/04 03:14:06;;;;;;;4.00;1.95;;;;;;;14.27;45.39;100425.63;5053267;28;20056;-76
2023/06/04 03:16:33;;;;;;;4.82;1.77;;;;;;;14.27;45.20;100419.47;5053081;28;20057;-76
2023/06/04 03:19:00;;;;;;;3.97;2.05;;;;;;;14.27;45.34;100422.97;5053741;28;20044;-76
2023/06/04 03:21:28;;;;;;;5.75;1.90;;;;;;;14.25;45.51;100424.88;5035974;22;20075;-81
2023/06/04 03:23:55;;;;;;;5.45;2.38;;;;;;;14.24;45.18;100415.22;5031793;28;20048;-82
2023/06/04 03:26:22;;;;;;;3.33;2.10;;;;;;;14.24;45.14;100424.97;5033299;28;20099;-81
2023/06/04 03:28:49;;;;;;;5.15;1.98;;;;;;;14.22;45.49;100421.56;5032867;28;20099;-81
2023/06/04 03:31:15;;;;;;;3.00;1.88;;;;;;;14.20;45.51;100422.50;5031798;28;20061;-81
2023/06/04 03:33:42;;;;;;;6.18;2.53;;;;;;;14.18;45.28;100431.50;5032995;28;20053;-81
2023/06/04 03:36:08;;;;;;;2.55;1.70;;;;;;;14.15;45.52;100429.91;5033070;28;20135;-81
2023/06/04 03:38:35;;;;;;;2.55;1.80;;;;;;;14.13;45.62;100429.13;5033083;28;20131;-82
2023/06/04 03:41:02;;;;;;;3.75;2.00;;;;;;;14.11;45.70;100431.03;5033005;28;20053;-81
2023/06/04 03:43:28;;;;;;;4.85;2.10;;;;;;;14.09;45.81;100422.31;5032402;28;20053;-81
2023/06/04 03:45:55;;;;;;;5.95;2.10;;;;;;;14.10;46.20;100425.81;5032924;28;20053;-81
2023/06/04 03:48:22;;;;;;;4.57;2.10;;;;;;;14.10;46.26;100433.75;5033182;28;20099;-81
2023/06/04 03:50:49;;;;;;;4.32;2.00;;;;;;;14.09;46.37;100427.59;5033091;28;20107;-81
2023/06/04 03:53:16;;;;;;;5.32;2.00;;;;;;;14.10;46.33;100426.69;5032921;28;20049;-81
2023/06/04 03:55:43;;;;;;;4.20;2.20;;;;;;;14.11;46.25;100420.44;5032544;28;20053;-81
2023/06/04 03:58:11;;;;;;;4.43;2.00;;;;;;;14.12;46.17;100421.28;5031401;28;20053;-81
2023/06/04 04:00:38;;;;;;;5.88;2.40;;;;;;;14.14;46.60;100429.97;5033029;28;20132;-81
2023/06/04 04:03:09;;;;;;;4.78;2.00;;;;;;;14.15;46.51;100424.59;5032850;28;20080;-81
2023/06/04 04:05:36;;;;;;;3.83;2.38;;;;;;;14.16;46.55;100421.00;5031071;28;20059;-81
2023/06/04 04:08:04;;;;;;;3.33;2.05;;;;;;;14.15;46.40;100424.59;5031355;28;20057;-81
2023/06/04 04:10:30;;;;;;;3.75;2.28;;;;;;;14.14;46.39;100414.09;5032538;28;20100;-81
2023/06/04 04:12:58;;;;;;;5.47;2.25;;;;;;;14.13;46.84;100423.81;5033332;28;20049;-82
2023/06/04 04:15:25;;;;;;;4.80;2.38;;;;;;;14.12;46.89;100418.63;5030852;28;20041;-81
2023/06/04 04:17:52;;;;;;;7.00;2.40;;;;;;;14.12;46.81;100416.84;5032166;28;20057;-81
2023/06/04 04:20:19;;;;;;;4.38;2.30;;;;;;;14.11;46.85;100424.88;5032187;28;20419;-81
2023/06/04 04:22:45;;;;;;;5.68;2.40;;;;;;;14.11;46.98;100417.78;5032027;28;20054;-82
2023/06/04 04:25:14;;;;;;;5.50;2.08;;;;;;;14.12;46.85;100421.28;5032057;28;20525;-81
2023/06/04 04:27:41;;;;;;;2.95;2.20;;;;;;;14.12;46.84;100424.78;5032060;28;20057;-81
2023/06/04 04:30:08;;;;;;;4.13;2.58;;;;;;;14.11;46.85;100425.72;5032160;28;20080;-81
2023/06/04 04:32:38;;;;;;;4.43;2.20;;;;;;;14.13;47.27;100423.81;5032034;28;20049;-81
2023/06/04 04:35:05;;;;;;;2.67;1.98;;;;;;;14.15;47.20;100418.44;5030317;28;20458;-82
2023/06/04 04:37:31;;;;;;;4.88;2.30;;;;;;;14.17;47.20;100421.88;5031370;28;20063;-81
2023/06/04 04:39:58;;;;;;;4.18;2.40;;;;;;;14.18;47.46;100420.91;5031787;28;20188;-81
2023/06/04 04:42:25;;;;;;;4.38;2.20;;;;;;;14.20;47.34;100425.16;5031959;28;20480;-81
2023/06/04 04:44:51;;;;;;;5.05;2.30;;;;;;;14.23;47.53;100425.91;5031421;28;20053;-81
2023/06/04 04:47:18;;;;;;;6.45;2.50;;;;;;;14.26;47.55;100423.06;5031710;28;20049;-81
2023/06/04 04:49:44;;;;;;;4.40;2.42;;;;;;;14.27;47.57;100420.34;5031709;28;20060;-81
2023/06/04 04:52:14;;;;;;;5.88;2.53;;;;;;;14.30;47.23;100424.59;5030353;28;20045;-81
2023/06/04 04:54:41;;;;;;;4.88;2.78;;;;;;;14.30;47.51;100430.75;5031570;28;20135;-81
2023/06/04 04:57:08;;;;;;;6.32;2.47;;;;;;;14.33;47.30;100427.06;5011543;28;20057;-81
2023/06/04 04:59:39;;;;;;;8.52;2.75;;;;;;;14.35;47.23;100426.97;5011977;28;20410;-81
2023/06/04 05:02:06;;;;;;;17.63;2.50;;;;;;;14.38;47.74;100421.44;5028766;28;20068;-81
2023/06/04 05:04:33;;;;;;;10.50;2.50;;;;;;;14.40;47.75;100431.03;5029984;28;20515;-81
2023/06/04 05:06:59;;;;;;;6.95;2.33;;;;;;;14.42;47.90;100439.72;5031098;28;20411;-82
2023/06/04 05:09:26;;;;;;;5.80;2.47;;;;;;;14.46;47.69;100437.72;5031412;28;20057;-81
2023/06/04 05:11:53;;;;;;;7.18;2.63;;;;;;;14.50;47.76;100430.47;5030839;28;20049;-81
2023/06/04 05:14:19;;;;;;;5.05;2.30;;;;;;;14.54;47.91;100434.63;5031316;28;20045;-81
2023/06/04 05:16:48;;;;;;;8.50;2.75;;;;;;;14.57;47.93;100437.91;5029631;28;20081;-82
2023/06/04 05:19:18;;;;;;;114.63;7.22;;;;;;;14.61;48.43;100433.25;5029889;28;20062;-81
2023/06/04 05:21:45;;;;;;;48.45;3.95;;;;;;;14.68;47.87;100433.72;5030445;28;20053;-81
2023/06/04 05:24:11;;;;;;;9.15;2.83;;;;;;;14.70;47.89;100432.66;5031034;28;20148;-82
2023/06/04 05:26:39;;;;;;;5.75;2.40;;;;;;;14.73;47.76;100434.31;5029677;28;20053;-82
2023/06/04 05:29:07;;;;;;;19.63;2.80;;;;;;;14.77;47.73;100432.31;5029790;28;20076;-81
2023/06/04 05:31:34;;;;;;;5.20;2.78;;;;;;;14.81;47.75;100436.50;5028914;28;20046;-81
2023/06/04 05:34:06;;;;;;;3.38;2.15;;;;;;;14.85;47.52;100435.34;5029567;28;20041;-82
2023/06/04 05:36:33;;;;;;;4.20;2.50;;;;;;;14.89;47.38;100431.53;5030611;28;20059;-82
2023/06/04 05:38:59;;;;;;;3.30;1.83;;;;;;;14.94;47.21;100434.75;5029579;28;20132;-81
2023/06/04 05:41:27;;;;;;;7.95;2.17;;;;;;;14.98;47.41;100430.94;5030870;28;20488;-81
2023/06/04 05:43:53;;;;;;;2.67;2.05;;;;;;;15.04;47.01;100429.69;5030686;28;20403;-81
2023/06/04 05:46:21;;;;;;;4.90;1.92;;;;;;;15.08;47.04;100433.84;5030493;28;20168;-82
2023/06/04 05:48:48;;;;;;;3.88;2.30;;;;;;;15.13;47.20;100433.53;5030667;28;20061;-82
2023/06/04 05:51:14;;;;;;;2.58;2.03;;;;;;;15.16;47.19;100430.69;5030431;28;20136;-81
2023/06/04 05:53:42;;;;;;;3.08;2.25;;;;;;;15.21;47.57;100436.53;5029376;28;20061;-81
2023/06/04 05:56:08;;;;;;;3.42;2.38;;;;;;;15.27;47.26;100435.28;5029262;28;20107;-82
2023/06/04 05:58:35;;;;;;;4.55;2.25;;;;;;;15.32;47.38;100435.81;5029215;28;20107;-82
2023/06/04 06:01:02;;;;;;;3.92;2.60;;;;;;;15.38;47.51;100437.22;5029125;28;20060;-82
2023/06/04 06:03:29;;;;;;;4.15;2.20;;;;;;;15.45;47.34;100437.66;5028436;28;20091;-81
2023/06/04 06:05:58;;;;;;;5.88;2.45;;;;;;;15.52;47.25;100438.97;5029931;28;20136;-82
2023/06/04 06:08:25;;;;;;;12.70;2.50;;;;;;;15.59;47.57;100442.91;5030513;28;20045;-81
2023/06/04 06:10:51;;;;;;;7.72;2.38;;;;;;;15.65;47.27;100446.94;5030355;28;20570;-82
2023/06/04 06:13:18;;;;;;;6.05;2.05;;;;;;;15.73;47.34;100443.75;5028807;28;20176;-82
2023/06/04 06:15:46;;;;;;;5.53;2.28;;;;;;;15.77;47.07;100448.78;5030574;28;20088;-82
2023/06/04 06:18:13;;;;;;;3.30;2.10;;;;;;;15.83;46.93;100447.50;5029378;28;20049;-82
2023/06/04 06:20:41;;;;;;;3.67;2.42;;;;;;;15.89;46.46;100443.59;5030252;28;20508;-81
2023/06/04 06:23:07;;;;;;;4.20;2.28;;;;;;;15.94;46.65;100445.91;5028727;28;20049;-82
2023/06/04 06:25:34;;;;;;;3.78;2.22;;;;;;;15.98;46.58;100447.44;5030231;28;20049;-81
2023/06/04 06:28:01;;;;;;;3.40;2.20;;;;;;;16.02;46.53;100449.78;5030150;28;20071;-82
2023/06/04 06:30:27;;;;;;;5.03;2.53;;;;;;;16.06;46.42;100452.22;5028949;28;20084;-82
2023/06/04 06:32:54;;;;;;;4.10;2.25;;;;;;;16.12;46.29;100455.28;5027444;28;20045;-82
2023/06/04 06:35:22;;;;;;;6.90;2.28;;;;;;;16.16;46.13;100455.94;5029396;28;20045;-82
2023/06/04 06:37:49;;;;;;;2.97;2.08;;;;;;;16.21;46.26;100451.16;5030107;28;20053;-82
2023/06/04 06:40:15;;;;;;;4.47;2.10;;;;;;;16.26;46.14;100456.16;5029018;28;20063;-82
2023/06/04 06:42:42;;;;;;;2.63;2.13;;;;;;;16.31;46.40;100455.81;5029460;28;20101;-82
2023/06/04 06:45:09;;;;;;;7.03;3.13;;;;;;;16.37;46.50;100458.06;5033789;28;20056;-82
2023/06/04 06:47:35;;;;;;;7.60;2.78;;;;;;;16.42;46.61;100458.59;5033823;28;20095;-82
2023/06/04 06:50:02;;;;;;;6.60;2.60;;;;;;;16.48;46.78;100460.78;5034449;28;20115;-82
2023/06/04 06:52:29;;;;;;;3.83;2.22;;;;;;;16.56;46.54;100464.72;5032531;28;20132;-82
2023/06/04 06:54:59;;;;;;;4.22;2.20;;;;;;;16.62;46.51;100461.63;5032000;28;20511;-82
2023/06/04 06:57:25;;;;;;;3.15;2.20;;;;;;;16.70;46.52;100459.25;5033756;28;20049;-83
2023/06/04 06:59:53;;;;;;;5.43;2.58;;;;;;;16.75;46.66;100457.13;5033821;28;20053;-82
2023/06/04 07:02:20;;;;;;;3.97;2.10;;;;;;;16.85;46.50;100467.13;5032465;28;20041;-82
2023/06/04 07:04:47;;;;;;;4.50;2.35;;;;;;;16.91;46.59;100462.19;5032543;28;20474;-82
2023/06/04 07:07:14;;;;;;;7.03;2.30;;;;;;;17.00;46.59;100467.78;5033632;28;20111;-83
2023/06/04 07:09:44;;;;;;;2.72;1.75;;;;;;;17.08;46.41;100468.09;5033816;28;20108;-82
2023/06/04 07:12:10;;;;;;;4.53;2.38;;;;;;;17.17;46.17;100471.91;5032678;28;20499;-82
2023/06/04 07:14:37;;;;;;;2.70;2.05;;;;;;;17.24;46.12;100475.84;5033406;28;20061;-82
2023/06/04 07:17:04;;;;;;;5.28;2.42;;;;;;;17.32;45.87;100472.59;5033489;28;20111;-82
2023/06/04 07:19:30;;;;;;;2.47;2.03;;;;;;;17.38;45.90;100474.78;5032227;28;20530;-82
2023/06/04 07:21:57;;;;;;;2.75;1.95;;;;;;;17.48;45.70;100484.75;5033114;28;20489;-82
2023/06/04 07:24:24;;;;;;;6.38;1.95;;;;;;;17.54;45.50;100474.47;5032994;28;20049;-82
2023/06/04 07:26:50;;;;;;;3.33;2.38;;;;;;;17.62;45.50;100475.72;5032868;28;20057;-81
2023/06/04 07:29:17;;;;;;;3.58;2.25;;;;;;;17.70;45.58;100478.66;5033320;28;20057;-82
2023/06/04 07:31:43;;;;;;;5.03;1.88;;;;;;;17.79;45.48;100483.28;5032039;28;20100;-82
2023/06/04 07:34:10;;;;;;;4.18;1.90;;;;;;;17.88;45.41;100483.56;5031856;28;20454;-83
2023/06/04 07:36:36;;;;;;;4.82;1.85;;;;;;;17.98;45.16;100480.06;5032935;28;20148;-82
2023/06/04 07:39:06;;;;;;;4.38;2.08;;;;;;;18.07;44.89;100488.31;5033332;28;20566;-82
2023/06/04 07:41:32;;;;;;;4.22;2.00;;;;;;;18.16;44.75;100479.63;5033056;28;20111;-82
2023/06/04 07:43:59;;;;;;;3.55;1.83;;;;;;;18.24;44.68;100484.38;5032599;28;20049;-82
2023/06/04 07:46:26;;;;;;;3.97;1.55;;;;;;;18.34;44.30;100485.34;5032857;28;20060;-82
2023/06/04 07:48:52;;;;;;;3.30;1.80;;;;;;;18.42;44.17;100481.22;5031640;28;20099;-82
2023/06/04 07:51:19;;;;;;;2.70;1.80;;;;;;;18.52;44.51;100490.22;5031663;28;20516;-82
2023/06/04 07:53:46;;;;;;;8.27;2.40;;;;;;;18.61;44.57;100491.28;5031686;28;20140;-82
2023/06/04 07:56:12;;;;;;;2.72;1.77;;;;;;;18.70;44.67;100489.72;5031789;28;20057;-82
2023/06/04 07:58:39;;;;;;;2.72;1.95;;;;;;;18.80;44.52;100488.00;5033203;28;20050;-82
2023/06/04 08:01:05;;;;;;;4.22;2.13;;;;;;;18.93;44.28;100505.69;5033045;28;20080;-82
2023/06/04 08:03:33;;;;;;;3.78;1.80;;;;;;;19.01;44.10;100496.09;5033259;28;20076;-82
2023/06/04 08:06:00;;;;;;;2.28;1.73;;;;;;;19.12;43.86;100500.59;5031632;28;20061;-82
2023/06/04 08:08:29;;;;;;;5.65;1.92;;;;;;;19.24;43.34;100501.41;5032550;28;20053;-82
2023/06/04 08:10:56;;;;;;;7.05;2.38;;;;;;;19.34;43.50;100495.31;5031574;28;20049;-82
2023/06/04 08:13:23;;;;;;;2.58;1.80;;;;;;;19.45;43.31;100497.09;5032827;28;20073;-82
2023/06/04 08:15:49;;;;;;;2.42;1.77;;;;;;;19.57;43.39;100498.75;5032432;28;20089;-82
2023/06/04 08:18:16;;;;;;;2.92;2.10;;;;;;;19.65;43.07;100493.59;5032974;28;20061;-82
2023/06/04 08:20:42;;;;;;;3.80;1.75;;;;;;;19.77;42.85;100493.53;5032526;28;20123;-82
2023/06/04 08:23:09;;;;;;;4.70;1.90;;;;;;;19.87;42.59;100494.47;5032508;28;20136;-82
2023/06/04 08:25:36;;;;;;;4.22;1.98;;;;;;;19.97;42.61;100488.34;5032728;28;20124;-82
2023/06/04 08:28:02;;;;;;;2.35;1.60;;;;;;;20.07;42.81;100499.94;5031202;28;20095;-82
2023/06/04 08:30:29;;;;;;;2.25;1.77;;;;;;;20.18;42.49;100499.88;5031176;28;20062;-82
2023/06/04 08:32:56;;;;;;;3.30;1.70;;;;;;;20.30;42.16;100499.81;5031301;28;20353;-82
2023/06/04 08:35:22;;;;;;;2.58;1.50;;;;;;;20.40;41.34;100508.72;5032511;28;20140;-82
2023/06/04 08:37:49;;;;;;;2.10;1.52;;;;;;;20.51;42.02;100505.13;5031979;28;20133;-82
2023/06/04 08:40:15;;;;;;;3.08;1.55;;;;;;;20.63;41.63;100510.38;5030848;28;20053;-82
2023/06/04 08:42:44;;;;;;;2.78;1.63;;;;;;;20.72;41.25;100514.06;5031971;28;20049;-83
2023/06/04 08:45:12;;;;;;;3.35;1.42;;;;;;;20.83;41.11;100513.97;5030414;28;20049;-82
2023/06/04 08:47:49;;;;;;;1.60;1.35;;;;;;;20.90;41.02;100507.09;5030124;28;20076;-82
2023/06/04 08:50:22;;;;;;;2.45;1.55;;;;;;;21.01;40.63;100513.34;5015387;28;20132;-83
2023/06/04 08:52:55;;;;;;;2.65;1.20;;;;;;;21.10;40.09;100512.50;5030794;28;20057;-82
2023/06/04 08:55:22;;;;;;;2.13;1.33;;;;;;;21.20;40.33;100518.72;5031965;28;20045;-83
2023/06/04 08:57:53;;;;;;;2.85;1.30;;;;;;;21.29;39.51;100506.34;5031463;28;20451;-83
2023/06/04 09:00:20;;;;;;;2.25;1.23;;;;;;;21.38;40.49;100509.16;5030404;28;20111;-83
2023/06/04 09:02:47;;;;;;;2.78;1.30;;;;;;;21.48;40.08;100510.88;5012160;28;20081;-83
2023/06/04 09:05:20;;;;;;;1.65;1.17;;;;;;;21.56;40.17;100514.66;5011102;28;20053;-83
2023/06/04 09:07:51;;;;;;;7.78;1.33;;;;;;;21.68;39.22;100508.16;5010720;28;20076;-82
2023/06/04 09:10:21;;;;;;;1.15;1.00;;;;;;;21.80;39.00;100505.38;5012070;28;20050;-83
2023/06/04 09:12:50;;;;;;;2.28;1.00;;;;;;;21.89;39.44;100500.97;5012100;28;20096;-83
2023/06/04 09:15:16;;;;;;;1.55;1.00;;;;;;;21.98;38.46;100508.19;5011520;28;20111;-83
2023/06/04 09:17:43;;;;;;;2.95;1.20;;;;;;;22.06;38.60;100508.31;5010380;28;20050;-83
2023/06/04 09:20:20;;;;;;;2.53;1.00;;;;;;;22.14;38.35;100504.91;5011789;28;20140;-82
2023/06/04 09:22:47;;;;;;;2.47;0.95;;;;;;;22.28;37.87;100505.41;5028289;23;20049;-80
2023/06/04 09:25:27;;;;;;;1.77;0.77;;;;;;;22.36;37.43;100508.22;5009079;28;20496;-81
2023/06/04 09:27:57;;;;;;;1.80;0.85;;;;;;;22.49;38.02;100515.94;5010157;28;20046;-81
2023/06/04 09:30:24;;;;;;;3.90;1.23;;;;;;;22.59;38.23;100505.19;5010898;28;20050;-81
2023/06/04 09:32:53;;;;;;;3.45;0.98;;;;;;;22.68;37.49;100517.72;5010640;28;20064;-81
2023/06/04 09:35:20;;;;;;;1.58;0.90;;;;;;;22.77;37.47;100506.09;5010964;28;20045;-81
2023/06/04 09:37:56;;;;;;;1.30;0.70;;;;;;;22.85;35.57;100512.56;5010989;28;20049;-82
2023/06/04 09:40:23;;;;;;;1.05;0.90;;;;;;;22.95;36.04;100510.66;5011139;28;20054;-80
2023/06/04 09:42:57;;;;;;;0.90;0.90;;;;;;;23.03;36.43;100512.59;5010789;28;20058;-80
2023/06/04 09:45:32;;;;;;;1.90;0.90;;;;;;;23.11;35.12;100510.00;5009464;28;20501;-80
2023/06/04 09:47:59;;;;;;;3.63;1.00;;;;;;;23.22;35.33;100519.69;5011154;28;20133;-80
2023/06/04 09:50:37;;;;;;;1.75;0.80;;;;;;;23.26;35.57;100510.31;5010855;28;20046;-80
2023/06/04 09:53:18;;;;;;;1.67;0.90;;;;;;;23.36;35.52;100512.13;5010244;28;20508;-80
2023/06/04 09:55:44;;;;;;;1.08;0.85;;;;;;;23.47;35.21;100519.13;5009310;28;20496;-80
2023/06/04 09:58:12;;;;;;;2.35;1.00;;;;;;;23.55;34.48;100519.19;5010387;28;20060;-81
2023/06/04 10:00:40;;;;;;;1.33;0.80;;;;;;;23.63;34.64;100515.72;5010521;28;20393;-81
2023/06/04 10:03:13;;;;;;;1.20;0.82;;;;;;;23.69;32.85;100512.41;5010709;28;20081;-81
2023/06/04 10:05:40;;;;;;;1.02;0.80;;;;;;;23.75;33.63;100506.41;5010402;28;20546;-80
2023/06/04 10:08:09;;;;;;;1.00;0.75;;;;;;;23.80;34.61;100511.31;5010570;28;20133;-81
2023/06/04 10:10:37;;;;;;;2.10;0.93;;;;;;;23.85;34.37;100508.16;5010605;28;20061;-81
2023/06/04 10:13:18;;;;;;;1.05;1.00;;;;;;;23.87;34.53;100504.31;5010495;28;20063;-81
2023/06/04 10:15:49;;;;;;;1.90;0.93;;;;;;;23.98;34.05;100497.84;4998838;28;20057;-81
2023/06/04 10:18:16;;;;;;;1.10;0.80;;;;;;;24.08;33.81;100509.31;5010261;28;20049;-81
2023/06/04 10:20:43;;;;;;;2.03;0.90;;;;;;;24.16;33.14;100500.53;5010765;28;20093;-81
2023/06/04 10:23:11;;;;;;;1.75;0.90;;;;;;;24.26;33.79;100503.06;5010278;28;20057;-81
2023/06/04 10:25:37;;;;;;;1.15;0.82;;;;;;;24.34;33.58;100497.75;5009974;28;20054;-80
2023/06/04 10:28:04;;;;;;;3.30;1.10;;;;;;;24.45;33.42;100499.31;5009474;28;20056;-81
2023/06/04 10:30:30;;;;;;;1.15;0.90;;;;;;;24.55;33.62;100492.97;5010787;28;20496;-81
2023/06/04 10:32:58;;;;;;;2.03;0.85;;;;;;;24.64;33.20;100496.53;5010715;28;20045;-81
2023/06/04 10:35:31;;;;;;;1.40;0.90;;;;;;;24.73;33.64;100488.34;5010300;28;20129;-80
2023/06/04 10:38:06;;;;;;;1.38;0.80;;;;;;;24.88;33.40;100492.25;5010556;28;20072;-81
2023/06/04 10:40:34;;;;;;;2.10;1.20;;;;;;;25.10;33.71;100499.75;5009424;28;20519;-81
2023/06/04 10:43:08;;;;;;;1.38;0.95;;;;;;;25.31;32.48;100503.81;5011595;28;20058;-81
2023/06/04 10:45:35;;;;;;;2.00;0.80;;;;;;;25.60;32.53;100497.13;5010084;28;20060;-81
2023/06/04 10:48:07;;;;;;;11.70;1.80;;;;;;;25.93;32.48;100503.53;5010039;28;20061;-80
2023/06/04 10:50:35;;;;;;;3.30;1.20;;;;;;;26.32;33.42;100492.00;5010110;28;20085;-81
2023/06/04 10:53:03;;;;;;;1.30;0.80;;;;;;;26.80;32.74;100491.13;5009814;28;20130;-80
2023/06/04 10:55:30;;;;;;;0.85;0.82;;;;;;;27.31;31.90;100500.63;5009263;28;20668;-81
2023/06/04 10:58:01;;;;;;;1.42;0.93;;;;;;;27.79;31.45;100499.59;5009381;28;20358;-81
2023/06/04 11:00:38;;;;;;;1.02;0.93;;;;;;;28.27;32.86;100503.88;5009500;28;20068;-81
2023/06/04 11:03:06;;;;;;;1.20;0.80;;;;;;;28.77;30.36;100487.88;5009459;28;20053;-81
2023/06/04 11:05:35;;;;;;;1.77;0.98;;;;;;;29.22;30.84;100490.47;5009635;28;20524;-81
2023/06/04 11:08:03;;;;;;;1.58;0.80;;;;;;;29.66;29.61;100493.19;5009809;28;20053;-82
2023/06/04 11:10:35;;;;;;;1.98;0.93;;;;;;;30.08;28.74;100495.97;5010117;28;20050;-81
2023/06/04 11:13:03;;;;;;;2.97;1.00;;;;;;;30.48;29.25;100495.41;5010185;28;20054;-81
2023/06/04 11:15:42;;;;;;;0.75;0.70;;;;;;;30.79;27.34;100491.38;5009910;28;20054;-81
2023/06/04 11:18:14;;;;;;;1.48;0.82;;;;;;;31.14;27.64;100490.44;5010155;28;20053;-81
2023/06/04 11:20:42;;;;;;;0.95;0.85;;;;;;;31.45;28.57;100482.75;5008719;28;20058;-81
2023/06/04 11:23:11;;;;;;;0.88;0.68;;;;;;;31.73;27.77;100479.78;5008439;28;20068;-81
2023/06/04 11:25:37;;;;;;;1.67;0.90;;;;;;;32.02;26.98;100484.19;5009486;28;20052;-81
2023/06/04 11:28:04;;;;;;;1.10;0.80;;;;;;;32.27;26.56;100473.44;5009639;28;20060;-81